sensor_id;sensor_type;location;lat;lon;timestamp;P1;durP1;ratioP1;P2;durP2;ratioP2
6527;SDS011;64597;42.664;23.256;2023-02-28T00:00:10;16.65;;;7.97;;
6527;SDS011;64597;42.664;23.256;2023-02-28T00:02:38;16.50;;;8.90;;
6527;SDS011;64597;42.664;23.256;2023-02-28T00:05:06;15.07;;;8.45;;
6527;SDS011;64597;42.664;23.256;2023-02-28T00:07:33;17.02;;;8.23;;
6527;SDS011;64597;42.664;23.256;2023-02-28T00:09:59;14.10;;;7.63;;
6527;SDS011;64597;42.664;23.256;2023-02-28T00:12:25;19.55;;;9.02;;
6527;SDS011;64597;42.664;23.256;2023-02-28T00:14:51;15.52;;;8.13;;
6527;SDS011;64597;42.664;23.256;2023-02-28T00:17:17;15.80;;;8.02;;
6527;SDS011;64597;42.664;23.256;2023-02-28T00:22:11;12.38;;;6.43;;
6527;SDS011;64597;42.664;23.256;2023-02-28T00:24:36;14.40;;;7.18;;
6527;SDS011;64597;42.664;23.256;2023-02-28T00:27:02;13.95;;;7.70;;
6527;SDS011;64597;42.664;23.256;2023-02-28T00:29:27;14.88;;;7.30;;
6527;SDS011;64597;42.664;23.256;2023-02-28T00:31:52;12.68;;;6.43;;
6527;SDS011;64597;42.664;23.256;2023-02-28T00:34:18;12.30;;;5.75;;
6527;SDS011;64597;42.664;23.256;2023-02-28T00:36:43;11.35;;;5.20;;
6527;SDS011;64597;42.664;23.256;2023-02-28T00:39:11;10.40;;;6.22;;
6527;SDS011;64597;42.664;23.256;2023-02-28T00:41:36;11.80;;;6.15;;
6527;SDS011;64597;42.664;23.256;2023-02-28T00:44:02;12.68;;;6.53;;
6527;SDS011;64597;42.664;23.256;2023-02-28T00:46:27;13.95;;;6.57;;
6527;SDS011;64597;42.664;23.256;2023-02-28T00:48:53;11.85;;;6.20;;
6527;SDS011;64597;42.664;23.256;2023-02-28T00:51:18;11.55;;;5.82;;
6527;SDS011;64597;42.664;23.256;2023-02-28T00:53:44;10.90;;;6.75;;
6527;SDS011;64597;42.664;23.256;2023-02-28T00:56:09;14.45;;;6.72;;
6527;SDS011;64597;42.664;23.256;2023-02-28T00:58:35;13.43;;;7.43;;
6527;SDS011;64597;42.664;23.256;2023-02-28T01:01:00;14.45;;;8.35;;
6527;SDS011;64597;42.664;23.256;2023-02-28T01:03:26;15.32;;;8.05;;
6527;SDS011;64597;42.664;23.256;2023-02-28T01:05:51;16.15;;;8.00;;
6527;SDS011;64597;42.664;23.256;2023-02-28T01:08:18;16.52;;;8.18;;
6527;SDS011;64597;42.664;23.256;2023-02-28T01:10:44;13.77;;;7.97;;
6527;SDS011;64597;42.664;23.256;2023-02-28T01:13:10;14.05;;;8.57;;
6527;SDS011;64597;42.664;23.256;2023-02-28T01:15:36;16.40;;;8.20;;
6527;SDS011;64597;42.664;23.256;2023-02-28T01:18:02;16.05;;;9.35;;
6527;SDS011;64597;42.664;23.256;2023-02-28T01:20:28;20.63;;;9.50;;
6527;SDS011;64597;42.664;23.256;2023-02-28T01:22:53;18.42;;;9.80;;
6527;SDS011;64597;42.664;23.256;2023-02-28T01:25:19;20.15;;;10.57;;
6527;SDS011;64597;42.664;23.256;2023-02-28T01:27:44;20.90;;;11.82;;
6527;SDS011;64597;42.664;23.256;2023-02-28T01:30:10;24.33;;;10.48;;
6527;SDS011;64597;42.664;23.256;2023-02-28T01:32:36;19.13;;;10.27;;
6527;SDS011;64597;42.664;23.256;2023-02-28T01:35:01;25.80;;;11.13;;
6527;SDS011;64597;42.664;23.256;2023-02-28T01:37:27;21.92;;;10.07;;
6527;SDS011;64597;42.664;23.256;2023-02-28T01:39:53;27.00;;;10.48;;
6527;SDS011;64597;42.664;23.256;2023-02-28T01:42:18;24.55;;;10.48;;
6527;SDS011;64597;42.664;23.256;2023-02-28T01:47:24;27.65;;;10.63;;
6527;SDS011;64597;42.664;23.256;2023-02-28T01:49:53;19.45;;;10.23;;
6527;SDS011;64597;42.664;23.256;2023-02-28T01:52:20;23.83;;;10.48;;
6527;SDS011;64597;42.664;23.256;2023-02-28T01:54:48;22.77;;;10.80;;
6527;SDS011;64597;42.664;23.256;2023-02-28T01:57:18;21.83;;;11.05;;
6527;SDS011;64597;42.664;23.256;2023-02-28T01:59:48;24.40;;;11.23;;
6527;SDS011;64597;42.664;23.256;2023-02-28T02:02:20;26.50;;;10.50;;
6527;SDS011;64597;42.664;23.256;2023-02-28T02:05:07;24.15;;;11.00;;
6527;SDS011;64597;42.664;23.256;2023-02-28T02:10:04;27.48;;;10.68;;
6527;SDS011;64597;42.664;23.256;2023-02-28T02:23:51;24.17;;;10.93;;
6527;SDS011;64597;42.664;23.256;2023-02-28T02:29:32;27.08;;;11.02;;
6527;SDS011;64597;42.664;23.256;2023-02-28T02:40:17;19.83;;;9.88;;
6527;SDS011;64597;42.664;23.256;2023-02-28T02:43:07;26.63;;;10.85;;
6527;SDS011;64597;42.664;23.256;2023-02-28T02:45:48;23.88;;;10.30;;
6527;SDS011;64597;42.664;23.256;2023-02-28T02:48:18;23.33;;;11.10;;
6527;SDS011;64597;42.664;23.256;2023-02-28T02:50:49;23.40;;;10.20;;
6527;SDS011;64597;42.664;23.256;2023-02-28T02:53:21;21.95;;;9.55;;
6527;SDS011;64597;42.664;23.256;2023-02-28T02:55:52;25.02;;;10.55;;
6527;SDS011;64597;42.664;23.256;2023-02-28T02:58:20;20.45;;;8.57;;
6527;SDS011;64597;42.664;23.256;2023-02-28T03:01:02;23.27;;;11.27;;
6527;SDS011;64597;42.664;23.256;2023-02-28T03:03:29;21.77;;;9.63;;
6527;SDS011;64597;42.664;23.256;2023-02-28T03:05:58;21.55;;;9.32;;
6527;SDS011;64597;42.664;23.256;2023-02-28T03:08:25;21.45;;;9.40;;
6527;SDS011;64597;42.664;23.256;2023-02-28T03:10:54;20.17;;;10.20;;
6527;SDS011;64597;42.664;23.256;2023-02-28T03:13:37;23.02;;;11.00;;
6527;SDS011;64597;42.664;23.256;2023-02-28T03:16:29;22.73;;;11.48;;
6527;SDS011;64597;42.664;23.256;2023-02-28T03:22:29;26.83;;;11.02;;
6527;SDS011;64597;42.664;23.256;2023-02-28T03:25:05;27.98;;;11.45;;
6527;SDS011;64597;42.664;23.256;2023-02-28T03:30:30;28.85;;;11.50;;
6527;SDS011;64597;42.664;23.256;2023-02-28T03:33:09;28.35;;;11.88;;
6527;SDS011;64597;42.664;23.256;2023-02-28T03:35:48;31.25;;;12.48;;
6527;SDS011;64597;42.664;23.256;2023-02-28T03:41:09;28.08;;;13.00;;
6527;SDS011;64597;42.664;23.256;2023-02-28T03:43:42;25.85;;;12.05;;
6527;SDS011;64597;42.664;23.256;2023-02-28T03:46:12;38.15;;;13.00;;
6527;SDS011;64597;42.664;23.256;2023-02-28T03:48:44;29.27;;;11.35;;
6527;SDS011;64597;42.664;23.256;2023-02-28T03:51:17;36.25;;;13.13;;
6527;SDS011;64597;42.664;23.256;2023-02-28T03:53:49;29.85;;;12.10;;
6527;SDS011;64597;42.664;23.256;2023-02-28T03:56:22;27.85;;;12.70;;
6527;SDS011;64597;42.664;23.256;2023-02-28T04:01:32;30.90;;;13.55;;
6527;SDS011;64597;42.664;23.256;2023-02-28T04:04:02;29.33;;;12.23;;
6527;SDS011;64597;42.664;23.256;2023-02-28T04:06:29;29.85;;;14.25;;
6527;SDS011;64597;42.664;23.256;2023-02-28T04:08:57;24.70;;;13.05;;
6527;SDS011;64597;42.664;23.256;2023-02-28T04:11:36;26.42;;;9.73;;
6527;SDS011;64597;42.664;23.256;2023-02-28T04:14:02;23.10;;;10.50;;
6527;SDS011;64597;42.664;23.256;2023-02-28T04:16:29;26.98;;;12.52;;
6527;SDS011;64597;42.664;23.256;2023-02-28T04:18:55;30.70;;;12.75;;
6527;SDS011;64597;42.664;23.256;2023-02-28T04:21:28;30.35;;;12.60;;
6527;SDS011;64597;42.664;23.256;2023-02-28T04:23:58;31.33;;;13.98;;
6527;SDS011;64597;42.664;23.256;2023-02-28T04:26:32;30.65;;;13.15;;
6527;SDS011;64597;42.664;23.256;2023-02-28T04:28:59;28.58;;;12.40;;
6527;SDS011;64597;42.664;23.256;2023-02-28T04:31:27;34.58;;;12.48;;
6527;SDS011;64597;42.664;23.256;2023-02-28T04:33:53;33.22;;;13.82;;
6527;SDS011;64597;42.664;23.256;2023-02-28T04:36:18;31.08;;;12.73;;
6527;SDS011;64597;42.664;23.256;2023-02-28T04:38:44;38.17;;;14.38;;
6527;SDS011;64597;42.664;23.256;2023-02-28T04:41:10;33.67;;;13.35;;
6527;SDS011;64597;42.664;23.256;2023-02-28T04:43:36;28.98;;;12.13;;
6527;SDS011;64597;42.664;23.256;2023-02-28T04:46:02;23.45;;;12.57;;
6527;SDS011;64597;42.664;23.256;2023-02-28T04:48:30;28.02;;;12.85;;
6527;SDS011;64597;42.664;23.256;2023-02-28T04:51:15;28.52;;;13.25;;
6527;SDS011;64597;42.664;23.256;2023-02-28T04:53:42;34.10;;;14.02;;
6527;SDS011;64597;42.664;23.256;2023-02-28T04:56:10;33.45;;;14.70;;
6527;SDS011;64597;42.664;23.256;2023-02-28T04:58:37;35.03;;;15.40;;
6527;SDS011;64597;42.664;23.256;2023-02-28T05:01:03;31.25;;;13.63;;
6527;SDS011;64597;42.664;23.256;2023-02-28T05:03:30;27.52;;;13.25;;
6527;SDS011;64597;42.664;23.256;2023-02-28T05:05:55;31.42;;;11.45;;
6527;SDS011;64597;42.664;23.256;2023-02-28T05:08:20;29.33;;;12.57;;
6527;SDS011;64597;42.664;23.256;2023-02-28T05:10:46;31.42;;;12.25;;
6527;SDS011;64597;42.664;23.256;2023-02-28T05:13:12;31.98;;;13.10;;
6527;SDS011;64597;42.664;23.256;2023-02-28T05:15:37;29.10;;;14.18;;
6527;SDS011;64597;42.664;23.256;2023-02-28T05:18:03;30.23;;;13.63;;
6527;SDS011;64597;42.664;23.256;2023-02-28T05:20:28;33.13;;;13.40;;
6527;SDS011;64597;42.664;23.256;2023-02-28T05:22:54;26.40;;;11.23;;
6527;SDS011;64597;42.664;23.256;2023-02-28T05:25:20;32.55;;;13.07;;
6527;SDS011;64597;42.664;23.256;2023-02-28T05:27:49;23.02;;;10.77;;
6527;SDS011;64597;42.664;23.256;2023-02-28T05:30:14;21.40;;;10.50;;
6527;SDS011;64597;42.664;23.256;2023-02-28T05:32:40;23.25;;;10.85;;
6527;SDS011;64597;42.664;23.256;2023-02-28T05:35:08;28.38;;;12.43;;
6527;SDS011;64597;42.664;23.256;2023-02-28T05:37:35;25.92;;;11.25;;
6527;SDS011;64597;42.664;23.256;2023-02-28T05:40:01;22.50;;;9.57;;
6527;SDS011;64597;42.664;23.256;2023-02-28T05:42:26;20.90;;;10.20;;
6527;SDS011;64597;42.664;23.256;2023-02-28T05:44:52;20.60;;;9.48;;
6527;SDS011;64597;42.664;23.256;2023-02-28T05:47:17;23.15;;;9.32;;
6527;SDS011;64597;42.664;23.256;2023-02-28T05:49:43;18.92;;;9.48;;
6527;SDS011;64597;42.664;23.256;2023-02-28T05:52:08;24.35;;;9.50;;
6527;SDS011;64597;42.664;23.256;2023-02-28T05:54:34;20.13;;;8.70;;
6527;SDS011;64597;42.664;23.256;2023-02-28T05:56:59;17.38;;;8.40;;
6527;SDS011;64597;42.664;23.256;2023-02-28T05:59:24;16.65;;;7.70;;
6527;SDS011;64597;42.664;23.256;2023-02-28T06:01:50;19.38;;;9.18;;
6527;SDS011;64597;42.664;23.256;2023-02-28T06:04:18;20.13;;;8.65;;
6527;SDS011;64597;42.664;23.256;2023-02-28T06:06:44;19.27;;;9.52;;
6527;SDS011;64597;42.664;23.256;2023-02-28T06:09:13;21.25;;;10.65;;
6527;SDS011;64597;42.664;23.256;2023-02-28T06:11:40;19.10;;;9.57;;
6527;SDS011;64597;42.664;23.256;2023-02-28T06:14:05;18.02;;;8.25;;
6527;SDS011;64597;42.664;23.256;2023-02-28T06:16:33;20.05;;;9.48;;
6527;SDS011;64597;42.664;23.256;2023-02-28T06:19:00;19.92;;;10.05;;
6527;SDS011;64597;42.664;23.256;2023-02-28T06:21:28;19.75;;;9.18;;
6527;SDS011;64597;42.664;23.256;2023-02-28T06:23:54;19.25;;;9.80;;
6527;SDS011;64597;42.664;23.256;2023-02-28T06:26:20;18.05;;;7.78;;
6527;SDS011;64597;42.664;23.256;2023-02-28T06:28:46;17.38;;;9.35;;
6527;SDS011;64597;42.664;23.256;2023-02-28T06:31:12;18.13;;;8.43;;
6527;SDS011;64597;42.664;23.256;2023-02-28T06:33:39;20.67;;;9.45;;
6527;SDS011;64597;42.664;23.256;2023-02-28T06:36:06;19.13;;;9.18;;
6527;SDS011;64597;42.664;23.256;2023-02-28T06:38:32;19.38;;;9.32;;
6527;SDS011;64597;42.664;23.256;2023-02-28T06:40:59;19.40;;;10.45;;
6527;SDS011;64597;42.664;23.256;2023-02-28T06:43:25;21.13;;;10.00;;
6527;SDS011;64597;42.664;23.256;2023-02-28T06:48:19;20.83;;;9.70;;
6527;SDS011;64597;42.664;23.256;2023-02-28T06:50:45;20.00;;;9.73;;
6527;SDS011;64597;42.664;23.256;2023-02-28T06:53:10;25.08;;;11.73;;
6527;SDS011;64597;42.664;23.256;2023-02-28T06:55:37;21.92;;;10.52;;
6527;SDS011;64597;42.664;23.256;2023-02-28T06:58:03;25.10;;;11.93;;
6527;SDS011;64597;42.664;23.256;2023-02-28T07:00:38;25.17;;;12.18;;
6527;SDS011;64597;42.664;23.256;2023-02-28T07:03:03;24.63;;;11.63;;
6527;SDS011;64597;42.664;23.256;2023-02-28T07:05:29;27.83;;;12.98;;
6527;SDS011;64597;42.664;23.256;2023-02-28T07:07:54;28.85;;;13.38;;
6527;SDS011;64597;42.664;23.256;2023-02-28T07:10:20;32.10;;;13.68;;
6527;SDS011;64597;42.664;23.256;2023-02-28T07:12:45;32.72;;;14.32;;
6527;SDS011;64597;42.664;23.256;2023-02-28T07:15:10;30.90;;;14.02;;
6527;SDS011;64597;42.664;23.256;2023-02-28T07:17:36;32.05;;;14.95;;
6527;SDS011;64597;42.664;23.256;2023-02-28T07:20:02;35.83;;;16.55;;
6527;SDS011;64597;42.664;23.256;2023-02-28T07:22:29;34.70;;;14.85;;
6527;SDS011;64597;42.664;23.256;2023-02-28T07:24:55;45.33;;;16.45;;
6527;SDS011;64597;42.664;23.256;2023-02-28T07:27:20;35.58;;;17.25;;
6527;SDS011;64597;42.664;23.256;2023-02-28T07:29:50;33.75;;;16.30;;
6527;SDS011;64597;42.664;23.256;2023-02-28T07:32:16;39.58;;;18.23;;
6527;SDS011;64597;42.664;23.256;2023-02-28T07:34:42;39.00;;;16.83;;
6527;SDS011;64597;42.664;23.256;2023-02-28T07:37:07;36.95;;;16.15;;
6527;SDS011;64597;42.664;23.256;2023-02-28T07:39:33;43.15;;;18.05;;
6527;SDS011;64597;42.664;23.256;2023-02-28T07:41:58;35.78;;;16.23;;
6527;SDS011;64597;42.664;23.256;2023-02-28T07:44:25;40.13;;;15.93;;
6527;SDS011;64597;42.664;23.256;2023-02-28T07:46:51;41.88;;;17.42;;
6527;SDS011;64597;42.664;23.256;2023-02-28T07:49:17;42.60;;;17.88;;
6527;SDS011;64597;42.664;23.256;2023-02-28T07:51:43;46.22;;;17.75;;
6527;SDS011;64597;42.664;23.256;2023-02-28T07:54:08;38.10;;;16.67;;
6527;SDS011;64597;42.664;23.256;2023-02-28T07:56:33;44.75;;;17.77;;
6527;SDS011;64597;42.664;23.256;2023-02-28T07:58:59;42.40;;;21.02;;
6527;SDS011;64597;42.664;23.256;2023-02-28T08:01:24;44.90;;;16.15;;
6527;SDS011;64597;42.664;23.256;2023-02-28T08:03:50;42.42;;;16.63;;
6527;SDS011;64597;42.664;23.256;2023-02-28T08:06:16;43.13;;;19.15;;
6527;SDS011;64597;42.664;23.256;2023-02-28T08:08:52;50.90;;;18.00;;
6527;SDS011;64597;42.664;23.256;2023-02-28T08:11:18;42.45;;;18.02;;
6527;SDS011;64597;42.664;23.256;2023-02-28T08:13:44;41.00;;;17.00;;
6527;SDS011;64597;42.664;23.256;2023-02-28T08:16:11;44.08;;;17.92;;
6527;SDS011;64597;42.664;23.256;2023-02-28T08:18:40;42.20;;;18.23;;
6527;SDS011;64597;42.664;23.256;2023-02-28T08:21:06;45.13;;;20.05;;
6527;SDS011;64597;42.664;23.256;2023-02-28T08:23:33;51.00;;;19.73;;
6527;SDS011;64597;42.664;23.256;2023-02-28T08:25:58;46.47;;;17.65;;
6527;SDS011;64597;42.664;23.256;2023-02-28T08:28:24;47.17;;;18.15;;
6527;SDS011;64597;42.664;23.256;2023-02-28T08:30:50;41.83;;;17.05;;
6527;SDS011;64597;42.664;23.256;2023-02-28T08:33:15;38.50;;;18.10;;
6527;SDS011;64597;42.664;23.256;2023-02-28T08:35:40;42.17;;;17.85;;
6527;SDS011;64597;42.664;23.256;2023-02-28T08:38:06;42.17;;;17.65;;
6527;SDS011;64597;42.664;23.256;2023-02-28T08:40:34;42.25;;;20.05;;
6527;SDS011;64597;42.664;23.256;2023-02-28T08:43:00;18.60;;;11.38;;
6527;SDS011;64597;42.664;23.256;2023-02-28T08:45:25;39.00;;;16.83;;
6527;SDS011;64597;42.664;23.256;2023-02-28T08:47:50;37.58;;;17.90;;
6527;SDS011;64597;42.664;23.256;2023-02-28T08:50:17;38.25;;;17.38;;
6527;SDS011;64597;42.664;23.256;2023-02-28T08:52:43;41.78;;;17.75;;
6527;SDS011;64597;42.664;23.256;2023-02-28T08:55:09;33.83;;;17.80;;
6527;SDS011;64597;42.664;23.256;2023-02-28T08:57:35;41.13;;;18.25;;
6527;SDS011;64597;42.664;23.256;2023-02-28T09:00:01;41.70;;;19.25;;
6527;SDS011;64597;42.664;23.256;2023-02-28T09:04:55;38.38;;;18.63;;
6527;SDS011;64597;42.664;23.256;2023-02-28T09:07:20;40.03;;;17.60;;
6527;SDS011;64597;42.664;23.256;2023-02-28T09:09:46;40.25;;;17.27;;
6527;SDS011;64597;42.664;23.256;2023-02-28T09:12:24;41.92;;;17.95;;
6527;SDS011;64597;42.664;23.256;2023-02-28T09:14:51;43.08;;;17.95;;
6527;SDS011;64597;42.664;23.256;2023-02-28T09:17:16;34.83;;;17.70;;
6527;SDS011;64597;42.664;23.256;2023-02-28T09:19:42;46.33;;;19.52;;
6527;SDS011;64597;42.664;23.256;2023-02-28T09:22:08;44.60;;;21.00;;
6527;SDS011;64597;42.664;23.256;2023-02-28T09:24:35;46.85;;;22.85;;
6527;SDS011;64597;42.664;23.256;2023-02-28T09:27:00;50.30;;;21.88;;
6527;SDS011;64597;42.664;23.256;2023-02-28T09:29:26;43.95;;;18.60;;
6527;SDS011;64597;42.664;23.256;2023-02-28T09:31:51;44.05;;;18.27;;
6527;SDS011;64597;42.664;23.256;2023-02-28T09:34:17;46.25;;;18.50;;
6527;SDS011;64597;42.664;23.256;2023-02-28T09:36:42;44.97;;;21.17;;
6527;SDS011;64597;42.664;23.256;2023-02-28T09:39:08;41.55;;;18.67;;
6527;SDS011;64597;42.664;23.256;2023-02-28T09:41:38;48.20;;;21.13;;
6527;SDS011;64597;42.664;23.256;2023-02-28T09:44:13;47.67;;;20.90;;
6527;SDS011;64597;42.664;23.256;2023-02-28T09:46:47;43.35;;;19.17;;
6527;SDS011;64597;42.664;23.256;2023-02-28T09:49:18;46.15;;;19.30;;
6527;SDS011;64597;42.664;23.256;2023-02-28T09:54:24;42.30;;;17.52;;
6527;SDS011;64597;42.664;23.256;2023-02-28T09:59:53;47.80;;;16.98;;
6527;SDS011;64597;42.664;23.256;2023-02-28T10:05:14;37.95;;;18.20;;
6527;SDS011;64597;42.664;23.256;2023-02-28T10:15:38;49.05;;;20.75;;
6527;SDS011;64597;42.664;23.256;2023-02-28T10:18:05;56.45;;;22.80;;
6527;SDS011;64597;42.664;23.256;2023-02-28T10:20:37;42.95;;;19.75;;
6527;SDS011;64597;42.664;23.256;2023-02-28T10:25:57;41.08;;;19.95;;
6527;SDS011;64597;42.664;23.256;2023-02-28T10:28:25;41.92;;;17.83;;
6527;SDS011;64597;42.664;23.256;2023-02-28T10:30:53;40.25;;;19.10;;
6527;SDS011;64597;42.664;23.256;2023-02-28T10:35:50;41.95;;;20.02;;
6527;SDS011;64597;42.664;23.256;2023-02-28T10:38:17;44.70;;;19.15;;
6527;SDS011;64597;42.664;23.256;2023-02-28T10:40:48;45.03;;;19.55;;
6527;SDS011;64597;42.664;23.256;2023-02-28T10:45:39;36.83;;;19.10;;
6527;SDS011;64597;42.664;23.256;2023-02-28T10:48:35;45.33;;;19.02;;
6527;SDS011;64597;42.664;23.256;2023-02-28T10:51:05;32.40;;;16.05;;
6527;SDS011;64597;42.664;23.256;2023-02-28T10:53:52;32.75;;;14.57;;
6527;SDS011;64597;42.664;23.256;2023-02-28T10:56:25;28.52;;;13.32;;
6527;SDS011;64597;42.664;23.256;2023-02-28T10:58:56;23.20;;;8.52;;
6527;SDS011;64597;42.664;23.256;2023-02-28T11:01:41;14.30;;;7.30;;
6527;SDS011;64597;42.664;23.256;2023-02-28T11:04:19;16.48;;;7.55;;
6527;SDS011;64597;42.664;23.256;2023-02-28T11:09:29;16.08;;;7.40;;
6527;SDS011;64597;42.664;23.256;2023-02-28T11:11:59;18.67;;;7.10;;
6527;SDS011;64597;42.664;23.256;2023-02-28T11:14:26;21.02;;;9.95;;
6527;SDS011;64597;42.664;23.256;2023-02-28T11:16:54;17.50;;;8.20;;
6527;SDS011;64597;42.664;23.256;2023-02-28T11:19:25;16.05;;;7.30;;
6527;SDS011;64597;42.664;23.256;2023-02-28T11:22:00;22.10;;;6.78;;
6527;SDS011;64597;42.664;23.256;2023-02-28T11:24:28;16.38;;;7.05;;
6527;SDS011;64597;42.664;23.256;2023-02-28T11:27:00;14.75;;;7.20;;
6527;SDS011;64597;42.664;23.256;2023-02-28T11:29:27;16.48;;;8.45;;
6527;SDS011;64597;42.664;23.256;2023-02-28T11:32:01;20.27;;;8.00;;
6527;SDS011;64597;42.664;23.256;2023-02-28T11:34:27;15.93;;;6.15;;
6527;SDS011;64597;42.664;23.256;2023-02-28T11:36:57;14.65;;;7.25;;
6527;SDS011;64597;42.664;23.256;2023-02-28T11:39:24;17.95;;;8.00;;
6527;SDS011;64597;42.664;23.256;2023-02-28T11:45:03;18.55;;;7.97;;
6527;SDS011;64597;42.664;23.256;2023-02-28T11:50:45;23.20;;;8.77;;
6527;SDS011;64597;42.664;23.256;2023-02-28T11:56:06;19.73;;;8.00;;
6527;SDS011;64597;42.664;23.256;2023-02-28T11:58:45;18.60;;;8.68;;
6527;SDS011;64597;42.664;23.256;2023-02-28T12:01:27;14.43;;;8.30;;
6527;SDS011;64597;42.664;23.256;2023-02-28T12:07:00;18.90;;;7.82;;
6527;SDS011;64597;42.664;23.256;2023-02-28T12:09:46;16.73;;;7.57;;
6527;SDS011;64597;42.664;23.256;2023-02-28T12:12:37;18.23;;;8.77;;
6527;SDS011;64597;42.664;23.256;2023-02-28T12:18:21;20.13;;;8.10;;
6527;SDS011;64597;42.664;23.256;2023-02-28T12:23:32;15.23;;;7.68;;
6527;SDS011;64597;42.664;23.256;2023-02-28T12:28:53;18.90;;;8.75;;
6527;SDS011;64597;42.664;23.256;2023-02-28T12:31:24;20.55;;;9.13;;
6527;SDS011;64597;42.664;23.256;2023-02-28T12:33:56;14.15;;;7.78;;
6527;SDS011;64597;42.664;23.256;2023-02-28T12:36:28;15.40;;;8.00;;
6527;SDS011;64597;42.664;23.256;2023-02-28T12:38:55;18.08;;;7.15;;
6527;SDS011;64597;42.664;23.256;2023-02-28T12:44:13;14.02;;;8.05;;
6527;SDS011;64597;42.664;23.256;2023-02-28T12:46:44;18.52;;;8.80;;
6527;SDS011;64597;42.664;23.256;2023-02-28T12:51:48;17.67;;;8.10;;
6527;SDS011;64597;42.664;23.256;2023-02-28T12:57:06;16.58;;;8.70;;
6527;SDS011;64597;42.664;23.256;2023-02-28T12:59:54;18.65;;;9.98;;
6527;SDS011;64597;42.664;23.256;2023-02-28T13:02:44;17.70;;;8.38;;
6527;SDS011;64597;42.664;23.256;2023-02-28T13:13:13;20.17;;;7.90;;
6527;SDS011;64597;42.664;23.256;2023-02-28T13:15:41;17.33;;;8.00;;
6527;SDS011;64597;42.664;23.256;2023-02-28T13:18:32;16.23;;;8.05;;
6527;SDS011;64597;42.664;23.256;2023-02-28T13:21:02;16.70;;;8.82;;
6527;SDS011;64597;42.664;23.256;2023-02-28T13:26:20;19.65;;;7.97;;
6527;SDS011;64597;42.664;23.256;2023-02-28T13:31:20;15.65;;;7.82;;
6527;SDS011;64597;42.664;23.256;2023-02-28T13:44:13;16.65;;;6.32;;
6527;SDS011;64597;42.664;23.256;2023-02-28T13:49:19;16.55;;;6.70;;
6527;SDS011;64597;42.664;23.256;2023-02-28T13:51:45;12.10;;;5.70;;
6527;SDS011;64597;42.664;23.256;2023-02-28T13:56:53;15.98;;;5.43;;
6527;SDS011;64597;42.664;23.256;2023-02-28T14:08:51;13.45;;;5.15;;
6527;SDS011;64597;42.664;23.256;2023-02-28T14:11:31;14.55;;;6.05;;
6527;SDS011;64597;42.664;23.256;2023-02-28T14:13:57;18.95;;;6.53;;
6527;SDS011;64597;42.664;23.256;2023-02-28T14:16:28;20.73;;;6.53;;
6527;SDS011;64597;42.664;23.256;2023-02-28T14:21:39;17.52;;;7.05;;
6527;SDS011;64597;42.664;23.256;2023-02-28T14:24:30;12.68;;;6.55;;
6527;SDS011;64597;42.664;23.256;2023-02-28T14:30:11;16.10;;;5.93;;
6527;SDS011;64597;42.664;23.256;2023-02-28T14:39:04;15.13;;;5.60;;
6527;SDS011;64597;42.664;23.256;2023-02-28T14:41:29;15.85;;;6.43;;
6527;SDS011;64597;42.664;23.256;2023-02-28T14:43:57;11.70;;;5.93;;
6527;SDS011;64597;42.664;23.256;2023-02-28T14:46:35;18.70;;;5.90;;
6527;SDS011;64597;42.664;23.256;2023-02-28T14:49:03;12.73;;;5.10;;
6527;SDS011;64597;42.664;23.256;2023-02-28T14:51:32;17.20;;;6.10;;
6527;SDS011;64597;42.664;23.256;2023-02-28T14:53:59;13.95;;;5.13;;
6527;SDS011;64597;42.664;23.256;2023-02-28T14:56:36;15.27;;;6.10;;
6527;SDS011;64597;42.664;23.256;2023-02-28T14:59:03;14.27;;;5.82;;
6527;SDS011;64597;42.664;23.256;2023-02-28T15:01:30;12.25;;;6.07;;
6527;SDS011;64597;42.664;23.256;2023-02-28T15:04:02;13.55;;;6.10;;
6527;SDS011;64597;42.664;23.256;2023-02-28T15:06:30;18.25;;;6.15;;
6527;SDS011;64597;42.664;23.256;2023-02-28T15:09:06;17.90;;;6.32;;
6527;SDS011;64597;42.664;23.256;2023-02-28T15:11:45;14.13;;;5.80;;
6527;SDS011;64597;42.664;23.256;2023-02-28T15:14:17;10.38;;;4.88;;
6527;SDS011;64597;42.664;23.256;2023-02-28T15:16:46;18.80;;;6.55;;
6527;SDS011;64597;42.664;23.256;2023-02-28T15:21:55;15.77;;;6.13;;
6527;SDS011;64597;42.664;23.256;2023-02-28T15:27:03;18.75;;;6.60;;
6527;SDS011;64597;42.664;23.256;2023-02-28T15:29:34;16.50;;;6.00;;
6527;SDS011;64597;42.664;23.256;2023-02-28T15:32:16;15.25;;;6.40;;
6527;SDS011;64597;42.664;23.256;2023-02-28T15:34:55;12.32;;;5.95;;
6527;SDS011;64597;42.664;23.256;2023-02-28T15:37:26;18.77;;;7.75;;
6527;SDS011;64597;42.664;23.256;2023-02-28T15:39:55;16.52;;;6.32;;
6527;SDS011;64597;42.664;23.256;2023-02-28T15:42:26;12.77;;;5.70;;
6527;SDS011;64597;42.664;23.256;2023-02-28T15:44:53;13.10;;;4.82;;
6527;SDS011;64597;42.664;23.256;2023-02-28T15:47:19;12.82;;;6.50;;
6527;SDS011;64597;42.664;23.256;2023-02-28T15:52:21;9.80;;;5.18;;
6527;SDS011;64597;42.664;23.256;2023-02-28T15:54:52;10.75;;;5.70;;
6527;SDS011;64597;42.664;23.256;2023-02-28T15:57:22;17.77;;;6.25;;
6527;SDS011;64597;42.664;23.256;2023-02-28T15:59:57;18.48;;;6.75;;
6527;SDS011;64597;42.664;23.256;2023-02-28T16:02:33;11.13;;;5.20;;
6527;SDS011;64597;42.664;23.256;2023-02-28T16:07:43;11.35;;;5.60;;
6527;SDS011;64597;42.664;23.256;2023-02-28T16:10:09;11.50;;;4.97;;
6527;SDS011;64597;42.664;23.256;2023-02-28T16:12:37;10.57;;;5.18;;
6527;SDS011;64597;42.664;23.256;2023-02-28T16:15:18;11.57;;;5.88;;
6527;SDS011;64597;42.664;23.256;2023-02-28T16:17:45;11.70;;;5.00;;
6527;SDS011;64597;42.664;23.256;2023-02-28T16:20:12;9.27;;;4.50;;
6527;SDS011;64597;42.664;23.256;2023-02-28T16:22:47;9.43;;;4.78;;
6527;SDS011;64597;42.664;23.256;2023-02-28T16:25:13;10.68;;;5.00;;
6527;SDS011;64597;42.664;23.256;2023-02-28T16:27:40;13.45;;;5.10;;
6527;SDS011;64597;42.664;23.256;2023-02-28T16:30:07;12.00;;;5.93;;
6527;SDS011;64597;42.664;23.256;2023-02-28T16:32:38;13.23;;;5.35;;
6527;SDS011;64597;42.664;23.256;2023-02-28T16:35:05;8.93;;;4.32;;
6527;SDS011;64597;42.664;23.256;2023-02-28T16:37:34;9.18;;;4.90;;
6527;SDS011;64597;42.664;23.256;2023-02-28T16:40:00;9.93;;;4.50;;
6527;SDS011;64597;42.664;23.256;2023-02-28T16:42:26;10.20;;;5.30;;
6527;SDS011;64597;42.664;23.256;2023-02-28T16:44:53;10.50;;;5.00;;
6527;SDS011;64597;42.664;23.256;2023-02-28T16:47:20;8.90;;;5.00;;
6527;SDS011;64597;42.664;23.256;2023-02-28T16:49:46;9.98;;;5.47;;
6527;SDS011;64597;42.664;23.256;2023-02-28T16:52:12;11.02;;;5.28;;
6527;SDS011;64597;42.664;23.256;2023-02-28T16:54:38;10.27;;;5.40;;
6527;SDS011;64597;42.664;23.256;2023-02-28T16:57:05;9.23;;;4.80;;
6527;SDS011;64597;42.664;23.256;2023-02-28T16:59:32;7.90;;;4.00;;
6527;SDS011;64597;42.664;23.256;2023-02-28T17:01:58;12.88;;;5.60;;
6527;SDS011;64597;42.664;23.256;2023-02-28T17:04:24;9.80;;;4.50;;
6527;SDS011;64597;42.664;23.256;2023-02-28T17:06:51;8.10;;;3.95;;
6527;SDS011;64597;42.664;23.256;2023-02-28T17:09:18;9.18;;;3.72;;
6527;SDS011;64597;42.664;23.256;2023-02-28T17:11:45;7.28;;;4.45;;
6527;SDS011;64597;42.664;23.256;2023-02-28T17:14:11;5.75;;;3.90;;
6527;SDS011;64597;42.664;23.256;2023-02-28T17:16:37;9.52;;;3.78;;
6527;SDS011;64597;42.664;23.256;2023-02-28T17:19:09;7.07;;;3.63;;
6527;SDS011;64597;42.664;23.256;2023-02-28T17:21:37;9.48;;;4.68;;